Terminal Aerodrome Forecast
Issued by NWS

Home | Current Version | Previous Version | Text Only | Print | Product List | Glossary On
Versions: 1 2 3 4 5 6 7 8 9 10 11 12 13 14 15 16 17 18 19 20 21 22 23
000
FTUS43 KDLH 211723
TAFHYR
TAF
KHYR 211723Z 2118/2218 16005KT P6SM BKN200
     FM211900 17005KT P6SM VCSH BKN090
     FM212000 08004KT P6SM -SHRA VCTS OVC050CB
     FM220100 VRB03KT P6SM SHRA VCTS OVC050CB
     FM220300 00000KT P6SM VCSH BKN045
     FM220400 00000KT P6SM BKN040
     FM221500 32007KT P6SM SKC=

USA.gov is the U.S. government's official web portal to all federal, state and local government web resources and services.